Time;durP1;ratioP1;P1;durP2;ratioP2;P2;SDS_P1;SDS_P2;PMS_P1;PMS_P2;Temp;Humidity;BMP_temperature;BMP_pressure;BME280_temperature;BME280_humidity;BME280_pressure;Samples;Min_cycle;Max_cycle;Signal;HPM_P1;HPM_P2
2023/07/05 00:01:52;;;;;;;;;2.00;1.00;;;;;16.19;97.46;100233.50;5038201;28;46192;-72
2023/07/05 00:04:17;;;;;;;;;4.00;2.00;;;;;16.09;96.44;100233.19;5037819;28;45454;-72
2023/07/05 00:06:42;;;;;;;;;1.33;1.00;;;;;16.07;97.87;100236.84;5038095;28;45486;-72
2023/07/05 00:09:08;;;;;;;;;4.00;2.33;;;;;15.96;98.17;100221.47;5039257;28;45453;-73
2023/07/05 00:11:33;;;;;;;;;5.67;3.00;;;;;16.06;98.40;100253.72;5037812;28;46105;-72
2023/07/05 00:13:58;;;;;;;;;4.67;1.67;;;;;16.02;98.56;100245.06;5037874;28;45457;-72
2023/07/05 00:16:24;;;;;;;;;4.00;3.00;;;;;15.98;97.10;100244.38;5038019;28;45239;-72
2023/07/05 00:18:49;;;;;;;;;3.33;2.33;;;;;15.91;97.63;100237.66;5039009;28;45449;-72
2023/07/05 00:21:15;;;;;;;;;1.67;1.67;;;;;15.85;98.38;100238.00;5037542;28;46724;-72
2023/07/05 00:23:45;;;;;;;;;3.67;2.00;;;;;15.89;98.16;100252.81;5037744;28;45414;-72
2023/07/05 00:26:10;;;;;;;;;2.67;2.67;;;;;15.90;97.80;100254.56;5037939;28;45447;-73
2023/07/05 00:28:36;;;;;;;;;3.33;3.33;;;;;15.92;97.35;100257.97;5037915;28;45301;-72
2023/07/05 00:31:05;;;;;;;;;3.00;3.00;;;;;15.90;99.51;100259.88;5037905;28;45675;-71
2023/07/05 00:33:31;;;;;;;;;4.00;2.33;;;;;15.70;98.65;100230.78;5037502;28;45286;-73
2023/07/05 00:35:56;;;;;;;;;2.67;2.67;;;;;15.85;99.58;100248.63;5037493;28;45374;-73
2023/07/05 00:38:22;;;;;;;;;6.00;2.67;;;;;15.91;97.71;100253.59;5044577;28;45247;-72
2023/07/05 00:40:48;;;;;;;;;3.00;3.00;;;;;15.82;98.39;100240.81;5057482;28;46587;-72
2023/07/05 00:43:15;;;;;;;;;5.00;3.00;;;;;15.88;96.68;100252.91;5057577;28;45520;-72
2023/07/05 00:45:56;;;;;;;;;4.00;4.00;;;;;15.87;96.91;100256.50;5057563;28;45335;-72
2023/07/05 00:48:52;;;;;;;;;3.67;3.67;;;;;15.84;96.64;100266.34;5057756;28;45339;-72
2023/07/05 00:51:24;;;;;;;;;5.00;4.00;;;;;15.80;96.79;100269.22;5057258;28;45486;-72
2023/07/05 00:53:52;;;;;;;;;8.33;4.33;;;;;15.70;96.96;100254.69;5038010;28;45837;-73
2023/07/05 00:56:22;;;;;;;;;6.67;3.33;;;;;15.69;96.38;100256.50;5037429;28;45300;-71
2023/07/05 00:58:50;;;;;;;;;6.67;4.00;;;;;15.67;96.18;100255.72;5037355;28;45416;-73
2023/07/05 01:01:16;;;;;;;;;3.67;2.33;;;;;15.62;96.33;100255.09;5043965;28;46623;-72
2023/07/05 01:03:43;;;;;;;;;9.00;4.67;;;;;15.65;96.51;100274.38;5049015;28;45214;-72
2023/07/05 01:06:12;;;;;;;;;3.33;3.33;;;;;15.63;96.69;100276.25;5047791;28;45515;-73
2023/07/05 01:08:38;;;;;;;;;5.00;3.67;;;;;15.50;96.58;100261.91;5037197;28;45547;-72
2023/07/05 01:11:34;;;;;;;;;6.67;3.00;;;;;15.52;96.98;100283.88;5037098;28;45314;-73
2023/07/05 01:14:17;;;;;;;;;4.00;3.67;;;;;15.41;98.03;100278.25;5014908;28;45303;-72
2023/07/05 01:17:14;;;;;;;;;8.67;4.00;;;;;15.47;98.10;100296.53;5014609;28;45426;-73
2023/07/05 01:19:49;;;;;;;;;5.67;3.67;;;;;15.48;96.79;100300.91;5014986;28;45347;-73
2023/07/05 01:22:50;;;;;;;;;8.00;5.33;;;;;15.44;97.53;100294.91;5014647;28;45620;-72
2023/07/05 01:25:18;;;;;;;;;7.33;5.33;;;;;15.50;98.34;100304.34;5014500;28;45479;-73
2023/07/05 01:28:05;;;;;;;;;8.67;6.00;;;;;15.52;98.32;100304.28;5014602;28;45386;-71
2023/07/05 01:30:51;;;;;;;;;4.00;4.00;;;;;15.53;97.71;100301.53;5017249;28;45520;-73
2023/07/05 01:33:32;;;;;;;;;6.33;4.33;;;;;15.47;97.70;100294.75;5017851;28;46000;-72
2023/07/05 01:35:58;;;;;;;;;4.33;4.33;;;;;15.50;97.84;100299.88;5017919;28;45569;-72
2023/07/05 01:38:23;;;;;;;;;13.00;13.00;;;;;15.55;98.92;100304.09;5017964;28;45537;-72
2023/07/05 01:40:54;;;;;;;;;6.67;5.67;;;;;15.54;98.64;100295.31;5017980;28;45416;-73
2023/07/05 01:43:21;;;;;;;;;8.67;6.33;;;;;15.50;98.10;100293.75;5017674;28;47028;-73
2023/07/05 01:46:04;;;;;;;;;10.00;7.00;;;;;15.45;97.84;100278.06;5017958;28;45411;-72
2023/07/05 01:48:54;;;;;;;;;8.67;6.33;;;;;15.52;97.82;100302.47;5018144;28;45419;-72
2023/07/05 01:51:34;;;;;;;;;8.33;4.67;;;;;15.53;97.16;100303.34;5032759;28;45524;-72
2023/07/05 01:54:23;;;;;;;;;11.00;5.00;;;;;15.52;96.80;100309.56;5039854;28;47365;-72
2023/07/05 01:56:55;;;;;;;;;4.00;3.00;;;;;15.47;96.59;100300.03;5039907;28;45364;-72
2023/07/05 01:59:25;;;;;;;;;9.00;7.00;;;;;15.45;97.02;100295.75;5039749;28;45372;-72
2023/07/05 02:01:53;;;;;;;;;8.67;4.67;;;;;15.40;96.88;100301.28;5039885;28;45291;-73
2023/07/05 02:04:23;;;;;;;;;7.00;5.00;;;;;15.44;96.25;100309.97;5039658;28;46435;-71
2023/07/05 02:06:49;;;;;;;;;7.33;6.00;;;;;15.44;96.85;100302.00;5039722;28;45320;-72
2023/07/05 02:09:15;;;;;;;;;4.67;3.67;;;;;15.44;96.46;100299.38;5040222;28;45233;-72
2023/07/05 02:11:40;;;;;;;;;4.33;4.33;;;;;15.37;95.75;100292.66;5040195;28;45312;-72
2023/07/05 02:14:06;;;;;;;;;8.67;5.00;;;;;15.36;96.75;100297.06;5040561;28;45307;-72
2023/07/05 02:16:31;;;;;;;;;8.00;6.00;;;;;15.35;96.04;100302.44;5039777;28;45230;-72
2023/07/05 02:18:56;;;;;;;;;3.67;3.67;;;;;15.25;95.84;100287.00;5039767;28;45383;-73
2023/07/05 02:21:22;;;;;;;;;3.67;2.00;;;;;15.27;95.84;100292.22;5039959;28;45269;-72
2023/07/05 02:23:47;;;;;;;;;2.67;2.67;;;;;15.26;95.87;100302.00;5050212;28;45520;-72
2023/07/05 02:26:12;;;;;;;;;4.00;2.67;;;;;15.18;95.63;100276.78;5059199;28;45474;-72
2023/07/05 02:28:38;;;;;;;;;5.00;4.00;;;;;15.12;95.51;100283.25;5060022;28;45293;-72
2023/07/05 02:31:06;;;;;;;;;7.00;5.67;;;;;15.19;95.11;100292.63;5059932;28;45225;-72
2023/07/05 02:33:34;;;;;;;;;4.67;3.00;;;;;15.14;95.05;100297.28;5059400;28;45395;-72
2023/07/05 02:36:07;;;;;;;;;6.33;3.67;;;;;15.15;95.17;100310.47;5059347;28;45201;-72
2023/07/05 02:38:32;;;;;;;;;3.75;2.25;;;;;15.11;95.48;100306.25;5059508;28;45383;-72
2023/07/05 02:40:57;;;;;;;;;4.00;2.33;;;;;15.16;95.70;100319.28;5045193;28;45331;-72
2023/07/05 02:43:22;;;;;;;;;6.33;3.00;;;;;14.99;95.51;100288.28;5046770;28;46558;-72
2023/07/05 02:45:49;;;;;;;;;2.67;2.33;;;;;15.18;96.51;100320.06;5059311;28;45451;-72
2023/07/05 02:48:14;;;;;;;;;3.67;3.33;;;;;15.09;95.32;100301.97;5059801;28;45313;-72
2023/07/05 02:50:39;;;;;;;;;3.33;1.67;;;;;15.13;95.12;100320.31;5059516;28;45478;-72
2023/07/05 02:53:05;;;;;;;;;1.67;1.67;;;;;15.06;95.19;100312.69;5055609;28;46017;-72
2023/07/05 02:55:30;;;;;;;;;6.33;3.00;;;;;15.10;95.36;100328.41;5039167;28;45271;-72
2023/07/05 02:57:55;;;;;;;;;2.25;2.00;;;;;15.10;96.71;100330.19;5038997;28;45329;-72
2023/07/05 03:00:21;;;;;;;;;2.00;2.00;;;;;15.02;96.27;100321.75;5039487;28;45226;-72
2023/07/05 03:02:46;;;;;;;;;3.75;1.25;;;;;15.08;96.23;100345.31;5053909;28;45663;-72
2023/07/05 03:05:12;;;;;;;;;1.50;1.50;;;;;15.02;97.58;100351.78;5059125;28;45214;-73
2023/07/05 03:07:38;;;;;;;;;4.00;1.75;;;;;15.05;98.54;100356.06;5059094;28;45502;-73
2023/07/05 03:10:05;;;;;;;;;4.50;0.75;;;;;15.03;96.82;100353.50;5059230;28;45683;-71
2023/07/05 03:12:30;;;;;;;;;2.67;1.67;;;;;15.02;96.84;100359.72;5058884;28;46611;-72
2023/07/05 03:14:56;;;;;;;;;2.00;1.00;;;;;14.95;97.29;100345.88;5058893;28;45345;-73
2023/07/05 03:17:21;;;;;;;;;2.33;1.67;;;;;14.99;97.35;100365.19;5045292;28;45436;-72
2023/07/05 03:19:46;;;;;;;;;3.00;0.50;;;;;14.95;97.97;100367.09;5038998;28;45529;-73
2023/07/05 03:22:12;;;;;;;;;0.25;0.00;;;;;14.88;97.78;100370.13;5038448;28;46471;-72
2023/07/05 03:24:37;;;;;;;;;1.50;1.50;;;;;14.94;96.86;100383.97;5054270;28;45423;-73
2023/07/05 03:27:03;;;;;;;;;0.50;0.50;;;;;14.96;97.57;100394.50;5058692;28;45651;-73
2023/07/05 03:29:28;;;;;;;;;1.50;1.50;;;;;14.93;98.10;100387.53;5059020;28;45281;-72
2023/07/05 03:31:54;;;;;;;;;4.67;2.67;;;;;14.98;96.87;100400.56;5058561;28;46348;-72
2023/07/05 03:34:19;;;;;;;;;6.67;2.00;;;;;14.97;96.28;100406.78;5058639;28;45335;-72
2023/07/05 03:36:44;;;;;;;;;1.67;1.67;;;;;15.01;96.34;100399.56;5058711;28;45425;-73
2023/07/05 03:39:10;;;;;;;;;1.67;1.67;;;;;15.03;96.65;100416.25;5044555;28;45372;-72
2023/07/05 03:41:36;;;;;;;;;3.33;3.00;;;;;15.02;95.40;100415.41;5038470;28;45607;-72
2023/07/05 03:44:01;;;;;;;;;3.50;1.50;;;;;15.04;95.86;100418.84;5038291;28;45211;-72
2023/07/05 03:46:27;;;;;;;;;1.67;0.67;;;;;15.01;95.75;100424.28;5038383;28;45429;-72
2023/07/05 03:48:53;;;;;;;;;2.00;1.50;;;;;15.04;96.79;100439.19;5038757;28;45755;-72
2023/07/05 03:51:20;;;;;;;;;5.00;2.00;;;;;15.10;96.00;100444.22;5037954;28;46350;-72
2023/07/05 03:53:54;;;;;;;;;4.00;2.00;;;;;15.09;95.98;100439.84;5050057;28;45340;-72
2023/07/05 03:56:19;;;;;;;;;2.33;1.67;;;;;15.14;95.74;100443.13;5058303;28;45182;-72
2023/07/05 03:58:45;;;;;;;;;3.33;2.00;;;;;15.17;94.99;100452.75;5058413;28;45285;-73
2023/07/05 04:01:15;;;;;;;;;5.00;2.00;;;;;15.15;95.93;100453.66;5058019;28;45516;-73
2023/07/05 04:03:44;;;;;;;;;2.25;1.75;;;;;15.07;95.58;100442.56;5057958;28;45786;-73
2023/07/05 04:06:10;;;;;;;;;1.25;1.00;;;;;15.18;95.56;100467.75;5057991;28;45396;-73
2023/07/05 04:08:36;;;;;;;;;2.25;2.25;;;;;15.18;96.90;100471.25;5044798;28;45360;-72
2023/07/05 04:11:01;;;;;;;;;4.00;2.00;;;;;15.18;97.19;100460.63;5047976;28;46292;-72
2023/07/05 04:13:26;;;;;;;;;6.00;2.00;;;;;15.15;95.18;100468.72;5052347;28;45375;-72
2023/07/05 04:16:04;;;;;;;;;1.67;1.67;;;;;15.13;95.27;100478.53;5038129;28;45457;-73
2023/07/05 04:18:31;;;;;;;;;3.25;1.25;;;;;15.14;95.82;100485.56;5037964;28;45400;-72
2023/07/05 04:20:57;;;;;;;;;2.25;0.75;;;;;15.13;96.17;100490.03;5037793;28;45384;-73
2023/07/05 04:23:23;;;;;;;;;2.00;2.00;;;;;15.06;96.07;100477.09;5037665;28;45397;-73
2023/07/05 04:25:49;;;;;;;;;4.00;2.00;;;;;15.12;96.13;100498.06;5037695;28;45258;-73
2023/07/05 04:28:14;;;;;;;;;3.00;1.67;;;;;15.08;95.95;100501.78;5038203;28;45571;-73
2023/07/05 04:30:39;;;;;;;;;6.33;2.67;;;;;15.04;96.39;100505.50;5037696;28;45636;-73
2023/07/05 04:33:05;;;;;;;;;3.00;2.00;;;;;15.05;95.16;100515.19;5037570;28;45403;-73
2023/07/05 04:35:30;;;;;;;;;2.67;2.67;;;;;15.01;95.83;100517.09;5037695;28;45476;-72
2023/07/05 04:37:56;;;;;;;;;2.33;2.33;;;;;14.91;95.21;100508.69;5037462;28;45357;-72
2023/07/05 04:40:21;;;;;;;;;2.33;2.33;;;;;14.96;95.62;100530.56;5040223;28;45384;-72
2023/07/05 04:42:47;;;;;;;;;2.67;2.00;;;;;14.90;95.45;100529.94;5057648;28;45296;-72
2023/07/05 04:45:12;;;;;;;;;5.00;3.00;;;;;14.93;94.71;100532.50;5054383;28;45506;-72
2023/07/05 04:47:37;;;;;;;;;2.00;2.00;;;;;14.89;94.93;100529.09;5052272;28;45448;-73
2023/07/05 04:50:03;;;;;;;;;4.00;4.00;;;;;14.94;95.02;100540.38;5053394;28;45458;-73
2023/07/05 04:52:29;;;;;;;;;5.67;2.67;;;;;14.89;93.58;100529.09;5037191;28;45290;-73
2023/07/05 04:54:54;;;;;;;;;6.00;2.00;;;;;14.93;94.20;100546.59;5037476;28;45331;-73
2023/07/05 04:57:20;;;;;;;;;2.67;2.00;;;;;14.95;93.39;100547.38;5037760;28;45238;-73
2023/07/05 04:59:45;;;;;;;;;1.67;1.67;;;;;14.89;93.64;100539.72;5037285;28;46648;-72
2023/07/05 05:02:10;;;;;;;;;1.67;1.67;;;;;14.93;93.46;100556.34;5038336;28;45287;-72
2023/07/05 05:04:37;;;;;;;;;1.67;1.67;;;;;14.98;93.98;100557.84;5038625;28;45238;-73
2023/07/05 05:07:02;;;;;;;;;3.00;3.00;;;;;15.01;93.41;100567.47;5040985;28;45508;-72
2023/07/05 05:09:28;;;;;;;;;1.33;1.33;;;;;15.03;93.06;100565.63;5043818;28;47292;-72
2023/07/05 05:11:54;;;;;;;;;5.00;2.67;;;;;15.06;92.28;100565.47;5060812;28;45779;-73
2023/07/05 05:14:19;;;;;;;;;4.67;2.00;;;;;14.90;92.22;100541.44;5059145;28;45380;-73
2023/07/05 05:16:44;;;;;;;;;5.00;2.67;;;;;15.02;92.80;100568.34;5061159;28;45143;-73
2023/07/05 05:19:10;;;;;;;;;4.25;3.00;;;;;15.00;92.29;100565.72;5046797;28;45495;-73
2023/07/05 05:21:35;;;;;;;;;1.67;1.67;;;;;15.08;92.34;100574.22;5041389;28;45509;-72
2023/07/05 05:24:00;;;;;;;;;4.33;3.00;;;;;15.19;91.95;100594.97;5040757;28;45373;-73
2023/07/05 05:26:26;;;;;;;;;1.67;1.67;;;;;15.23;92.19;100585.94;5040823;28;45469;-73
2023/07/05 05:28:51;;;;;;;;;3.00;3.00;;;;;15.28;92.04;100599.00;5054837;28;46649;-73
2023/07/05 05:31:17;;;;;;;;;2.33;2.33;;;;;15.28;92.30;100591.91;5049550;28;45400;-71
2023/07/05 05:33:42;;;;;;;;;3.67;3.67;;;;;15.30;92.18;100587.38;5040627;28;45296;-70
2023/07/05 05:36:07;;;;;;;;;4.67;3.00;;;;;15.21;91.81;100577.19;5044399;28;45427;-70
2023/07/05 05:38:35;;;;;;;;;5.67;3.33;;;;;15.35;92.83;100605.75;5059339;28;45469;-71
2023/07/05 05:41:03;;;;;;;;;2.00;2.00;;;;;15.33;92.45;100597.00;5053397;28;45289;-70
2023/07/05 05:43:29;;;;;;;;;1.67;1.33;;;;;15.35;92.14;100604.88;5052505;28;45316;-70
2023/07/05 05:45:54;;;;;;;;;3.67;3.00;;;;;15.39;92.77;100607.31;5056961;28;45308;-70
2023/07/05 05:48:20;;;;;;;;;2.67;1.00;;;;;15.45;92.44;100615.03;5049860;28;46739;-70
2023/07/05 05:50:46;;;;;;;;;5.67;3.00;;;;;15.54;92.24;100626.13;5060233;28;45370;-72
2023/07/05 05:53:11;;;;;;;;;4.33;2.00;;;;;15.51;92.06;100613.88;5055133;28;45388;-71
2023/07/05 05:55:38;;;;;;;;;5.00;3.33;;;;;15.60;92.00;100629.38;5051525;28;45497;-72
2023/07/05 05:58:05;;;;;;;;;3.00;2.00;;;;;15.60;92.15;100624.06;5039925;28;45678;-71
2023/07/05 06:00:30;;;;;;;;;2.67;2.67;;;;;15.46;92.13;100592.00;5053020;28;45511;-72
2023/07/05 06:02:57;;;;;;;;;4.67;2.67;;;;;15.66;92.06;100628.25;5043695;28;45216;-72
2023/07/05 06:05:23;;;;;;;;;3.00;1.67;;;;;15.78;91.79;100635.66;5040539;28;45461;-71
2023/07/05 06:07:49;;;;;;;;;2.33;2.33;;;;;15.80;91.57;100638.25;5039628;28;45446;-70
2023/07/05 06:10:14;;;;;;;;;3.00;2.00;;;;;15.79;90.41;100625.91;5039849;28;45218;-70
2023/07/05 06:12:41;;;;;;;;;5.00;2.00;;;;;15.92;90.17;100645.66;5039943;28;45232;-70
2023/07/05 06:15:09;;;;;;;;;5.33;3.00;;;;;15.90;89.35;100642.22;5039618;28;45349;-69
2023/07/05 06:17:35;;;;;;;;;2.00;2.00;;;;;15.80;88.34;100619.66;5056117;28;46276;-70
2023/07/05 06:20:00;;;;;;;;;4.33;3.00;;;;;16.01;87.96;100653.16;5058281;28;45466;-70
2023/07/05 06:22:26;;;;;;;;;2.67;1.00;;;;;16.25;86.49;100660.94;5059940;28;45375;-69
2023/07/05 06:24:51;;;;;;;;;1.75;1.25;;;;;16.34;85.21;100656.97;5059956;28;45492;-69
2023/07/05 06:27:17;;;;;;;;;3.00;2.00;;;;;16.25;84.72;100650.31;5059549;28;45446;-70
2023/07/05 06:29:42;;;;;;;;;1.67;1.67;;;;;16.29;83.15;100673.09;5059610;28;45434;-69
2023/07/05 06:32:08;;;;;;;;;2.00;2.00;;;;;16.29;83.43;100669.59;5061256;28;45505;-70
2023/07/05 06:34:33;;;;;;;;;5.00;2.67;;;;;16.33;83.54;100673.84;5058921;28;45345;-70
2023/07/05 06:36:58;;;;;;;;;0.33;0.33;;;;;16.36;83.52;100681.66;5059512;28;46087;-70
2023/07/05 06:39:24;;;;;;;;;2.00;2.00;;;;;16.38;84.08;100690.41;5059143;28;45242;-71
2023/07/05 06:41:49;;;;;;;;;2.67;1.67;;;;;16.41;84.10;100686.75;5058465;28;45313;-70
2023/07/05 06:44:14;;;;;;;;;2.00;2.00;;;;;16.28;84.43;100651.94;5059641;28;45477;-69
2023/07/05 06:46:40;;;;;;;;;3.00;3.00;;;;;16.57;83.19;100701.03;5058969;28;46415;-70
2023/07/05 06:49:05;;;;;;;;;3.67;3.00;;;;;16.53;83.07;100692.34;5059333;28;45397;-69
2023/07/05 06:51:30;;;;;;;;;1.67;1.67;;;;;16.62;82.82;100704.31;5059319;28;45508;-70
2023/07/05 06:53:56;;;;;;;;;6.00;3.00;;;;;16.63;82.32;100698.06;5059396;28;45408;-70
2023/07/05 06:56:21;;;;;;;;;6.00;4.00;;;;;16.62;81.90;100690.19;5058947;28;46274;-69
2023/07/05 06:58:47;;;;;;;;;5.00;3.33;;;;;16.65;82.15;100690.03;5043599;28;45424;-69
2023/07/05 07:01:12;;;;;;;;;3.00;3.00;;;;;16.75;82.49;100701.06;5038987;28;45448;-71
2023/07/05 07:03:38;;;;;;;;;3.00;2.00;;;;;16.84;82.14;100704.13;5039133;28;45294;-69
2023/07/05 07:06:04;;;;;;;;;5.00;3.00;;;;;16.93;81.61;100710.81;5038886;28;46203;-69
2023/07/05 07:08:33;;;;;;;;;4.00;1.33;;;;;16.94;81.39;100704.56;5038461;28;45375;-69
2023/07/05 07:11:00;;;;;;;;;3.00;1.67;;;;;17.09;80.34;100713.56;5038723;28;45273;-69
2023/07/05 07:13:26;;;;;;;;;4.00;3.00;;;;;17.35;78.76;100722.00;5039031;28;45387;-69
2023/07/05 07:16:07;;;;;;;;;1.67;1.67;;;;;17.58;78.08;100723.47;5038235;28;46466;-69
2023/07/05 07:18:36;;;;;;;;;2.00;2.00;;;;;17.85;77.70;100726.50;5059448;28;45407;-70
2023/07/05 07:21:02;;;;;;;;;2.00;2.00;;;;;18.34;74.88;100727.44;5058665;28;45458;-69
2023/07/05 07:23:28;;;;;;;;;3.67;1.00;;;;;18.31;75.07;100744.47;5058701;28;45467;-69
2023/07/05 07:26:04;;;;;;;;;4.00;2.33;;;;;18.48;73.97;100740.84;5058367;28;46275;-69
2023/07/05 07:28:29;;;;;;;;;2.67;2.67;;;;;18.49;73.46;100731.03;5057769;28;45308;-69
2023/07/05 07:30:56;;;;;;;;;1.67;1.33;;;;;18.57;73.38;100744.81;5058686;28;45486;-70
2023/07/05 07:33:21;;;;;;;;;2.33;2.00;;;;;18.69;72.84;100753.94;5058625;28;45418;-70
2023/07/05 07:35:48;;;;;;;;;4.33;2.67;;;;;18.64;73.26;100742.69;5057386;28;46674;-70
2023/07/05 07:38:14;;;;;;;;;3.00;1.00;;;;;18.61;72.76;100751.69;5058006;28;45392;-70
2023/07/05 07:40:40;;;;;;;;;10.00;9.00;;;;;18.60;71.67;100752.63;5058525;28;45170;-69
2023/07/05 07:43:06;;;;;;;;;2.00;1.00;;;;;18.58;70.00;100762.53;5058532;28;45621;-69
2023/07/05 07:45:32;;;;;;;;;4.67;2.00;;;;;18.61;71.54;100759.69;5057874;28;46899;-70
2023/07/05 07:47:58;;;;;;;;;1.67;1.67;;;;;18.53;71.78;100738.81;5058349;28;45385;-69
2023/07/05 07:50:24;;;;;;;;;1.67;1.67;;;;;18.69;72.31;100765.47;5058351;28;45376;-69
2023/07/05 07:52:50;;;;;;;;;3.00;2.00;;;;;18.57;73.24;100780.38;5058503;28;45304;-69
2023/07/05 07:55:15;;;;;;;;;4.00;2.00;;;;;18.44;74.08;100779.31;5058044;28;46253;-69
2023/07/05 07:57:41;;;;;;;;;4.33;2.00;;;;;18.50;74.96;100783.44;5057786;28;45401;-69
2023/07/05 08:00:09;;;;;;;;;3.67;2.00;;;;;18.66;74.56;100784.31;5058174;28;45357;-69
2023/07/05 08:02:35;;;;;;;;;5.00;4.00;;;;;18.69;75.37;100794.81;5056951;28;45403;-69
2023/07/05 08:05:01;;;;;;;;;6.33;3.33;;;;;18.79;75.39;100787.13;5058019;28;46437;-69
2023/07/05 08:07:26;;;;;;;;;3.00;3.00;;;;;18.82;74.93;100780.78;5057927;28;45410;-69
2023/07/05 08:09:55;;;;;;;;;2.00;2.00;;;;;18.74;75.53;100799.88;5057851;28;45293;-70
2023/07/05 08:12:20;;;;;;;;;3.00;2.00;;;;;18.69;76.74;100793.94;5058312;28;45455;-69
2023/07/05 08:14:45;;;;;;;;;7.00;2.67;;;;;19.31;75.48;100797.53;5057624;28;46805;-70
2023/07/05 08:17:11;;;;;;;;;2.67;2.67;;;;;19.64;73.72;100791.09;5057635;28;45405;-70
2023/07/05 08:19:37;;;;;;;;;5.00;4.00;;;;;19.74;72.75;100787.91;5057797;28;45805;-69
2023/07/05 08:22:03;;;;;;;;;1.67;1.00;;;;;19.54;73.46;100781.94;5057794;28;45400;-70
2023/07/05 08:24:29;;;;;;;;;3.33;2.67;;;;;19.66;73.52;100796.34;5057587;28;46952;-69
2023/07/05 08:26:55;;;;;;;;;5.33;2.67;;;;;19.75;73.24;100806.50;5057774;28;45245;-69
2023/07/05 08:29:22;;;;;;;;;8.67;2.67;;;;;19.72;73.41;100771.09;5057480;28;45417;-69
2023/07/05 08:31:48;;;;;;;;;7.67;2.33;;;;;19.97;71.95;100810.59;5058057;28;45392;-69
2023/07/05 08:34:14;;;;;;;;;2.00;2.00;;;;;20.07;72.58;100808.19;5057039;28;47461;-69
2023/07/05 08:36:41;;;;;;;;;1.33;1.00;;;;;20.21;71.40;100807.34;5057639;28;45370;-69
2023/07/05 08:39:08;;;;;;;;;3.67;0.67;;;;;20.04;70.68;100809.25;5057532;28;45274;-69
2023/07/05 08:41:45;;;;;;;;;5.00;1.67;;;;;20.14;68.46;100815.75;5057408;28;45350;-67
2023/07/05 08:44:48;;;;;;;;;2.33;1.00;;;;;20.32;67.37;100816.41;5057286;28;46095;-67
2023/07/05 08:47:19;;;;;;;;;1.67;1.00;;;;;20.37;66.22;100820.59;5057162;28;45525;-67
2023/07/05 08:49:54;;;;;;;;;3.00;1.67;;;;;20.35;65.76;100820.72;5057520;28;45399;-68
2023/07/05 08:52:36;;;;;;;;;4.00;3.67;;;;;20.48;66.52;100836.84;5057713;28;45335;-69
2023/07/05 08:55:08;;;;;;;;;1.00;1.00;;;;;20.56;65.40;100831.00;5057014;28;46460;-69
2023/07/05 08:57:54;;;;;;;;;1.33;1.33;;;;;20.61;65.07;100832.44;5057008;28;45461;-69
2023/07/05 09:00:46;;;;;;;;;2.67;1.00;;;;;20.55;64.89;100826.59;5057019;28;45362;-68
2023/07/05 09:03:13;;;;;;;;;1.00;1.00;;;;;20.64;64.75;100842.94;5057374;28;45503;-67
2023/07/05 09:05:52;;;;;;;;;3.00;1.00;;;;;20.57;64.90;100830.91;5056974;28;46333;-67
2023/07/05 09:08:29;;;;;;;;;1.00;1.00;;;;;21.42;62.77;100852.22;5057166;28;45446;-67
2023/07/05 09:11:03;;;;;;;;;0.67;0.67;;;;;22.14;60.01;100841.09;5056846;28;45309;-67
2023/07/05 09:13:32;;;;;;;;;1.33;1.33;;;;;22.21;59.32;100845.06;5057269;28;45326;-67
2023/07/05 09:16:13;;;;;;;;;3.67;1.00;;;;;22.41;60.14;100845.50;5057171;28;45312;-67
2023/07/05 09:19:10;;;;;;;;;2.00;2.00;;;;;22.65;56.71;100818.72;5056724;28;45378;-67
2023/07/05 09:21:46;;;;;;;;;2.00;1.00;;;;;23.76;55.58;100848.13;5057119;28;45290;-67
2023/07/05 09:24:41;;;;;;;;;0.67;0.67;;;;;24.19;54.08;100857.38;5057047;28;45512;-67
2023/07/05 09:27:31;;;;;;;;;2.33;1.00;;;;;25.87;51.92;100865.25;5034567;28;46325;-68
2023/07/05 09:30:06;;;;;;;;;2.67;2.67;;;;;27.98;47.38;100858.16;5034548;28;45440;-67
2023/07/05 09:32:36;;;;;;;;;2.33;1.67;;;;;30.08;42.51;100842.88;5034546;28;45515;-67
2023/07/05 09:35:01;;;;;;;;;0.00;0.00;;;;;31.26;38.88;100842.16;5034749;28;45932;-67
2023/07/05 09:37:30;;;;;;;;;1.33;1.33;;;;;30.86;36.74;100851.91;5034486;28;46043;-66
2023/07/05 09:40:15;;;;;;;;;1.00;1.00;;;;;29.52;38.70;100864.84;5034300;28;45511;-67
2023/07/05 09:43:08;;;;;;;;;2.00;2.00;;;;;28.29;39.95;100872.34;5034477;28;45375;-67
2023/07/05 09:45:34;;;;;;;;;2.67;0.33;;;;;28.59;41.61;100842.41;5034630;28;45596;-68
2023/07/05 09:48:02;;;;;;;;;1.00;1.00;;;;;29.51;39.78;100883.94;5033873;28;47261;-66
2023/07/05 09:50:29;;;;;;;;;1.00;1.00;;;;;28.79;39.71;100879.28;5035327;28;45481;-67
2023/07/05 09:53:32;;;;;;;;;0.00;0.00;;;;;29.74;40.81;100891.63;5037834;28;45431;-66
2023/07/05 09:56:09;;;;;;;;;2.67;1.00;;;;;31.64;39.05;100883.38;5037839;28;45358;-67
2023/07/05 09:58:35;;;;;;;;;2.67;1.33;;;;;33.26;37.17;100878.66;5037377;28;45329;-67
2023/07/05 10:01:04;;;;;;;;;9.33;6.33;;;;;34.80;34.91;100888.50;5037237;28;45394;-67
2023/07/05 10:03:43;;;;;;;;;0.67;0.67;;;;;35.87;33.12;100885.00;5048942;28;45425;-67
2023/07/05 10:06:10;;;;;;;;;3.00;1.00;;;;;36.44;30.58;100887.72;5060090;28;45476;-67
2023/07/05 10:08:49;;;;;;;;;1.00;1.00;;;;;35.97;29.25;100886.53;5045340;28;46456;-67
2023/07/05 10:11:33;;;;;;;;;0.67;0.67;;;;;36.23;30.16;100897.69;5046734;28;45286;-67
2023/07/05 10:14:09;;;;;;;;;0.33;0.33;;;;;36.99;30.88;100895.16;5059816;28;45525;-67
2023/07/05 10:16:51;;;;;;;;;1.33;0.67;;;;;37.08;29.37;100886.53;5059864;27;45656;-67
2023/07/05 10:19:22;;;;;;;;;1.33;0.00;;;;;36.07;28.77;100889.78;5059617;28;45391;-67
2023/07/05 10:21:52;;;;;;;;;3.67;0.67;;;;;34.67;29.94;100900.94;5059622;28;45426;-67
2023/07/05 10:24:19;;;;;;;;;2.00;2.00;;;;;33.18;31.00;100911.44;5044808;28;45456;-67
2023/07/05 10:26:48;;;;;;;;;1.67;1.67;;;;;32.80;31.98;100898.50;5039803;28;45353;-67
2023/07/05 10:29:20;;;;;;;;;2.67;0.67;;;;;33.19;32.14;100883.13;5039397;28;46145;-67
2023/07/05 10:31:57;;;;;;;;;0.33;0.33;;;;;33.79;32.16;100905.25;5039302;28;45300;-67
2023/07/05 10:34:24;;;;;;;;;2.33;0.67;;;;;34.35;30.06;100899.44;5039440;28;45316;-67
2023/07/05 10:36:51;;;;;;;;;1.67;0.67;;;;;35.11;30.63;100901.91;5039508;28;45457;-70
2023/07/05 10:39:22;;;;;;;;;1.33;0.00;;;;;35.86;29.84;100898.91;5038926;28;46518;-70
2023/07/05 10:41:51;;;;;;;;;4.00;2.33;;;;;36.55;28.98;100910.97;5039212;28;45422;-69
2023/07/05 10:44:24;;;;;;;;;0.67;0.00;;;;;37.06;27.87;100907.00;5039232;28;45314;-68
2023/07/05 10:46:50;;;;;;;;;1.00;1.00;;;;;37.33;26.98;100913.44;5039312;28;45425;-67
2023/07/05 10:49:19;;;;;;;;;0.67;0.67;;;;;37.17;27.63;100913.81;5039051;28;45277;-66
2023/07/05 10:51:53;;;;;;;;;2.00;0.00;;;;;36.56;27.66;100912.69;5038969;28;45258;-66
2023/07/05 10:55:09;;;;;;;;;3.67;1.00;;;;;35.31;29.06;100901.31;5039060;28;45249;-66
2023/07/05 10:57:42;;;;;;;;;4.33;3.67;;;;;33.92;28.67;100902.72;5037200;28;45553;-66
2023/07/05 11:00:23;;;;;;;;;2.33;1.00;;;;;32.39;30.20;100922.31;5035920;28;46390;-66
2023/07/05 11:02:56;;;;;;;;;0.33;0.33;;;;;31.39;31.62;100915.97;5035676;28;45517;-66
2023/07/05 11:05:28;;;;;;;;;1.33;1.33;;;;;30.54;32.79;100925.00;5036722;28;45389;-66
2023/07/05 11:07:58;;;;;;;;;1.00;1.00;;;;;29.74;33.63;100908.75;5037090;28;45397;-66
2023/07/05 11:10:25;;;;;;;;;2.67;2.67;;;;;29.09;34.45;100915.22;5036269;28;46420;-66
2023/07/05 11:12:50;;;;;;;;;2.67;1.00;;;;;28.78;35.16;100920.09;5036497;28;45519;-66
2023/07/05 11:15:21;;;;;;;;;1.00;1.00;;;;;28.40;36.14;100924.63;5036836;28;45568;-66
2023/07/05 11:17:47;;;;;;;;;1.33;1.33;;;;;27.95;37.46;100926.09;5036575;28;45384;-66
2023/07/05 11:20:35;;;;;;;;;1.33;1.33;;;;;27.44;38.58;100942.47;5036074;28;47141;-66
2023/07/05 11:23:00;;;;;;;;;1.00;1.00;;;;;27.06;38.95;100941.38;5036259;28;45447;-66
2023/07/05 11:25:55;;;;;;;;;2.33;2.33;;;;;26.62;39.75;100929.94;5036343;28;45561;-66
2023/07/05 11:28:42;;;;;;;;;2.33;2.00;;;;;26.05;41.12;100926.75;5036609;28;45488;-66
2023/07/05 11:31:09;;;;;;;;;2.33;2.00;;;;;25.89;41.29;100932.56;5036162;28;45549;-66
2023/07/05 11:33:35;;;;;;;;;2.00;2.00;;;;;25.71;41.60;100943.94;5037987;28;45471;-66
2023/07/05 11:36:08;;;;;;;;;3.00;1.33;;;;;25.51;42.30;100921.31;5038502;28;45312;-66